createdAt,value
2019-05-19T00:00:34.778Z,20.45
2019-05-19T00:06:37.164Z,19.32
2019-05-19T00:12:39.392Z,20.48
2019-05-19T00:18:41.533Z,18.57
2019-05-19T00:24:43.692Z,16.73
2019-05-19T00:30:45.812Z,18.40
2019-05-19T00:36:47.967Z,18.67
2019-05-19T00:42:50.135Z,20.43
2019-05-19T00:48:52.251Z,21.97
2019-05-19T00:54:54.449Z,17.67
2019-05-19T01:00:56.748Z,19.73
2019-05-19T01:06:59.217Z,19.10
2019-05-19T01:13:03.624Z,20.95
2019-05-19T01:19:05.844Z,21.48
2019-05-19T01:25:08.686Z,20.72
2019-05-19T01:31:10.848Z,22.95
2019-05-19T01:37:12.995Z,20.15
2019-05-19T01:43:15.296Z,21.00
2019-05-19T01:49:17.420Z,19.50
2019-05-19T01:55:19.708Z,19.62
2019-05-19T02:01:22.026Z,24.85
2019-05-19T02:07:24.342Z,22.10
2019-05-19T02:13:31.258Z,21.73
2019-05-19T02:19:33.665Z,20.85
2019-05-19T02:25:38.355Z,19.07
2019-05-19T02:31:40.552Z,18.35
2019-05-19T02:37:42.800Z,18.48
2019-05-19T02:43:46.860Z,19.50
2019-05-19T02:49:49.787Z,20.55
2019-05-19T02:55:52.280Z,22.42
2019-05-19T03:02:08.649Z,21.20
2019-05-19T03:08:30.316Z,23.05
2019-05-19T03:14:36.397Z,18.80
2019-05-19T03:20:38.618Z,24.27
2019-05-19T03:26:40.876Z,22.62
2019-05-19T03:32:46.033Z,22.45
2019-05-19T03:38:48.316Z,21.60
2019-05-19T03:44:52.595Z,19.80
2019-05-19T03:50:54.771Z,21.68
2019-05-19T03:56:57.083Z,17.95
2019-05-19T04:02:59.249Z,22.90
2019-05-19T04:09:01.400Z,21.50
2019-05-19T04:15:03.951Z,18.07
2019-05-19T04:21:06.153Z,20.32
2019-05-19T04:27:08.423Z,17.57
2019-05-19T04:33:10.614Z,18.48
2019-05-19T04:39:12.835Z,20.43
2019-05-19T04:45:15.368Z,21.52
2019-05-19T04:51:17.658Z,20.50
2019-05-19T04:57:19.818Z,16.40
2019-05-19T05:03:22.056Z,18.30
2019-05-19T05:09:24.179Z,17.75
2019-05-19T05:15:26.460Z,18.65
2019-05-19T05:21:29.028Z,16.70
2019-05-19T05:27:31.483Z,15.90
2019-05-19T05:33:33.843Z,16.85
2019-05-19T05:39:36.317Z,19.12
2019-05-19T05:45:38.535Z,16.23
2019-05-19T05:51:40.874Z,14.40
2019-05-19T05:57:43.187Z,13.32
2019-05-19T06:03:45.435Z,12.95
2019-05-19T06:09:47.708Z,11.40
2019-05-19T06:15:49.931Z,11.55
2019-05-19T06:21:52.751Z,11.70
2019-05-19T06:27:55.109Z,12.50
2019-05-19T06:33:57.583Z,11.73
2019-05-19T06:39:59.844Z,11.65
2019-05-19T06:46:02.132Z,11.08
2019-05-19T06:52:04.471Z,10.93
2019-05-19T06:58:08.879Z,11.03
2019-05-19T07:04:11.187Z,9.58
2019-05-19T07:10:13.807Z,9.23
2019-05-19T07:16:17.148Z,9.18
2019-05-19T07:22:19.645Z,9.33
2019-05-19T07:28:23.046Z,9.33
2019-05-19T07:34:25.244Z,9.05
2019-05-19T07:40:27.475Z,9.68
2019-05-19T07:46:29.873Z,9.28
2019-05-19T07:52:32.279Z,7.80
2019-05-19T07:58:34.643Z,7.78
2019-05-19T08:04:36.936Z,8.13
2019-05-19T08:10:39.107Z,10.88
2019-05-19T08:16:41.512Z,9.75
2019-05-19T08:22:43.709Z,8.63
2019-05-19T08:28:45.874Z,8.05
2019-05-19T08:34:49.416Z,7.50
2019-05-19T08:40:53.019Z,7.40
2019-05-19T08:46:55.714Z,7.53
2019-05-19T08:52:58.369Z,9.25
2019-05-19T08:59:00.632Z,8.18
2019-05-19T09:05:03.809Z,8.48
2019-05-19T09:11:06.075Z,10.23
2019-05-19T09:17:08.445Z,8.05
2019-05-19T09:23:10.836Z,8.68
2019-05-19T09:29:13.608Z,8.03
2019-05-19T09:35:16.140Z,9.50
2019-05-19T09:41:18.586Z,21.17
2019-05-19T09:47:20.980Z,4.78
2019-05-19T09:53:23.391Z,5.03
2019-05-19T09:59:25.892Z,6.53
2019-05-19T10:05:28.286Z,5.60
2019-05-19T10:12:00.122Z,5.97
2019-05-19T10:18:02.446Z,4.83
2019-05-19T10:24:06.080Z,5.20
2019-05-19T10:30:09.633Z,6.40
2019-05-19T10:36:12.187Z,5.55
2019-05-19T10:42:14.514Z,4.75
2019-05-19T10:48:16.793Z,8.45
2019-05-19T10:54:19.096Z,5.85
2019-05-19T11:00:21.410Z,5.12
2019-05-19T11:06:23.770Z,3.83
2019-05-19T11:12:26.077Z,3.90
2019-05-19T11:18:28.446Z,4.62
2019-05-19T11:24:30.735Z,8.53
2019-05-19T11:30:32.946Z,6.22
2019-05-19T11:36:35.240Z,5.22
2019-05-19T11:42:37.692Z,4.90
2019-05-19T11:48:41.074Z,5.80
2019-05-19T11:54:43.228Z,5.47
2019-05-19T12:00:45.537Z,6.15
2019-05-19T12:06:48.738Z,7.12
2019-05-19T12:12:51.207Z,5.70
2019-05-19T12:18:56.837Z,5.78
2019-05-19T12:24:57.440Z,5.35
2019-05-19T12:30:59.781Z,6.37
2019-05-19T12:37:02.108Z,5.47
2019-05-19T12:43:04.432Z,5.37
2019-05-19T12:49:06.908Z,5.20
2019-05-19T12:55:09.582Z,4.75
2019-05-19T13:01:12.047Z,4.67
2019-05-19T13:07:14.531Z,5.17
2019-05-19T13:13:17.000Z,6.85
2019-05-19T13:19:19.339Z,7.53
2019-05-19T13:25:21.551Z,7.30
2019-05-19T13:31:23.885Z,8.85
2019-05-19T13:37:26.264Z,7.10
2019-05-19T13:43:28.720Z,7.25
2019-05-19T13:49:31.149Z,7.45
2019-05-19T13:55:34.179Z,6.67
2019-05-19T14:01:37.306Z,7.45
2019-05-19T14:07:39.743Z,7.17
2019-05-19T14:13:42.313Z,8.45
2019-05-19T14:19:44.637Z,8.20
2019-05-19T14:25:46.976Z,7.30
2019-05-19T14:31:49.245Z,7.45
2019-05-19T14:37:51.633Z,8.83
2019-05-19T14:43:54.162Z,8.93
2019-05-19T14:49:56.483Z,9.48
2019-05-19T14:56:01.143Z,9.43
2019-05-19T15:02:03.554Z,7.53
2019-05-19T15:08:05.840Z,8.88
2019-05-19T15:14:07.989Z,8.45
2019-05-19T15:20:10.968Z,8.38
2019-05-19T15:26:14.262Z,9.15
2019-05-19T15:32:16.851Z,10.90
2019-05-19T15:38:19.416Z,8.23
2019-05-19T15:44:22.257Z,7.72
2019-05-19T15:50:25.038Z,6.87
2019-05-19T15:56:27.485Z,6.83
2019-05-19T16:02:29.803Z,6.50
2019-05-19T16:08:32.226Z,6.53
2019-05-19T16:14:34.619Z,7.83
2019-05-19T16:20:36.941Z,7.97
2019-05-19T16:26:39.361Z,10.23
2019-05-19T16:32:41.823Z,8.28
2019-05-19T16:38:44.184Z,8.83
2019-05-19T16:44:46.566Z,7.70
2019-05-19T16:50:49.028Z,7.60
2019-05-19T16:56:51.575Z,7.12
2019-05-19T17:02:54.141Z,7.30
2019-05-19T17:08:56.505Z,6.78
2019-05-19T17:14:58.720Z,7.33
2019-05-19T17:21:01.297Z,7.22
2019-05-19T17:27:05.977Z,8.70
2019-05-19T17:33:08.266Z,7.60
2019-05-19T17:39:10.796Z,7.40
2019-05-19T17:45:14.391Z,7.62
2019-05-19T17:51:17.775Z,6.72
2019-05-19T17:57:20.236Z,7.37
2019-05-19T18:03:24.433Z,7.95
2019-05-19T18:09:26.765Z,7.97
2019-05-19T18:15:29.072Z,7.00
2019-05-19T18:21:31.345Z,6.97
2019-05-19T18:27:33.951Z,6.20
2019-05-19T18:33:36.272Z,6.00
2019-05-19T18:39:38.566Z,5.65
2019-05-19T18:45:40.898Z,4.75
2019-05-19T18:51:43.241Z,5.75
2019-05-19T18:57:45.581Z,5.15
2019-05-19T19:03:48.057Z,4.97
2019-05-19T19:09:50.417Z,5.97
2019-05-19T19:15:52.645Z,5.87
2019-05-19T19:21:55.108Z,8.25
2019-05-19T19:27:57.615Z,8.50
2019-05-19T19:33:59.988Z,7.03
2019-05-19T19:40:03.855Z,6.90
2019-05-19T19:46:06.345Z,7.85
2019-05-19T19:52:09.880Z,6.97
2019-05-19T19:58:12.149Z,6.42
2019-05-19T20:04:14.621Z,8.03
2019-05-19T20:10:16.941Z,8.38
2019-05-19T20:16:19.479Z,8.90
2019-05-19T20:22:23.235Z,9.58
2019-05-19T20:28:25.735Z,7.28
2019-05-19T20:34:28.090Z,8.10
2019-05-19T20:40:30.488Z,8.50
2019-05-19T20:46:33.049Z,8.80
2019-05-19T20:52:35.421Z,9.43
2019-05-19T20:58:37.896Z,8.53
2019-05-19T21:04:40.787Z,8.08
2019-05-19T21:10:43.141Z,10.63
2019-05-19T21:16:45.391Z,8.80
2019-05-19T21:22:47.748Z,11.90
2019-05-19T21:28:50.065Z,10.82
2019-05-19T21:34:52.465Z,13.25
2019-05-19T21:40:54.884Z,9.50
2019-05-19T21:46:57.151Z,10.58
2019-05-19T21:52:59.481Z,10.25
2019-05-19T21:59:01.737Z,10.13
2019-05-19T22:05:04.124Z,12.33
2019-05-19T22:11:06.549Z,12.33
2019-05-19T22:17:08.782Z,11.88
2019-05-19T22:23:11.018Z,13.75
2019-05-19T22:29:13.357Z,12.75
2019-05-19T22:35:15.615Z,9.48
2019-05-19T22:41:17.952Z,11.50
2019-05-19T22:47:20.319Z,11.95
2019-05-19T22:53:23.093Z,12.88
2019-05-19T22:59:25.457Z,11.60
2019-05-19T23:05:27.863Z,12.80
2019-05-19T23:11:30.291Z,12.63
2019-05-19T23:17:32.548Z,14.63
2019-05-19T23:23:34.986Z,12.43
2019-05-19T23:29:37.187Z,12.43
2019-05-19T23:35:39.630Z,12.90
2019-05-19T23:41:41.989Z,13.58
2019-05-19T23:47:44.250Z,11.85
2019-05-19T23:53:46.539Z,13.45
2019-05-19T23:59:48.894Z,11.75
